KLUF

Luke AFB Airport

Glendale, Arizona, USA
METAR KLUF 191458Z AUTO 31004KT 10SM CLR 32/19 A2989 RMK AO2 SLP106 T03240185 52017 $
Observed Flight Rules
Aug-19 @ 14:58 UTC (39 minutes ago) Visual Flight Rules
Wind Visibility Clouds
310° at 4 knots 10 miles
  • Clear skies
Temperatures Readings
Current 32°C / 90°F
Dewpoint 19°C / 66°F
Humidity 46%
Altimeter 29.89" Hg
Pressure 1010.6 hPa
Elevation 332
METAR KLUF 191458Z AUTO 31004KT 10SM CLR 32/19 A2989 RMK AO2 SLP106 T03240185 52017 $
Observed Flight Rules
Aug-19 @ 14:58 UTC
(39 minutes ago)
VFR
Wind Visibility
310° at 4 knots 10 miles
Clouds
  • Clear skies
Temperature Dewpoint
32°C / 90°F 19°C / 66°F
Humidity Altimeter Pressure
46% 29.89" Hg 1010.6 hPa